Inwood, New York
Current Conditions -  °F | °C
As of 7:51 PM on Wednesday 26 Nov 2014 (Local Time) from KJFK Reporting Station
Light Rain Light Rain  
Wind Chill: 26°   Ceiling: 1200
Heat Index: 37°   Visibility: 5mi
Dew Point: 34°   Wind: 23mph
Humidity: 89%   Direction: 340°NNW
Pressure: 29.78"   Gusts: 30mph
Location:  40.62°N, 73.75°W
Report Text: KJFK 270051Z 34020G26KT 5SM -RA BR BKN012 BKN017 OVC023 03/01 A2978 RMK AO2 PK WND 33028/0020 SLP085 P0002 T00280011 $
Loading
Personal Weather Stations






























Interactive Weather Map New forecast layout! Learn more

10-Day Weather Forecast

Advertisements
Track Severe Weather on mobile